Time;durP1;ratioP1;P1;durP2;ratioP2;P2;SDS_P1;SDS_P2;PMS_P1;PMS_P2;Temp;Humidity;BMP_temperature;BMP_pressure;BME280_temperature;BME280_humidity;BME280_pressure;Samples;Min_cycle;Max_cycle;Signal;HPM_P1;HPM_P2
2021/12/27 13:37:59;;;;;;;230.00;40.70;;;2.20;99.90;;;;;;5062438;27;20390;-67
2021/12/27 13:40:25;;;;;;;300.77;48.07;;;2.10;99.90;;;;;;5064929;28;20794;-68
2021/12/27 13:42:51;;;;;;;184.60;42.33;;;2.10;99.90;;;;;;5065855;28;20319;-69
2021/12/27 13:45:17;;;;;;;282.93;47.43;;;2.10;99.90;;;;;;5064423;28;20051;-71
2021/12/27 13:47:57;;;;;;;290.60;46.57;;;2.10;99.90;;;;;;5064639;28;20045;-69
2021/12/27 13:50:28;;;;;;;182.73;40.50;;;2.20;99.90;;;;;;5064569;28;20122;-68
2021/12/27 13:52:56;;;;;;;230.38;45.33;;;2.20;99.90;;;;;;5065503;28;20378;-68
2021/12/27 13:55:32;;;;;;;283.00;45.73;;;2.20;99.90;;;;;;5064573;28;20087;-67
2021/12/27 13:58:11;;;;;;;273.33;44.20;;;2.20;99.90;;;;;;5065352;28;20743;-70
2021/12/27 14:00:37;;;;;;;251.80;43.97;;;2.30;99.90;;;;;;5063037;28;20298;-68
2021/12/27 14:03:02;;;;;;;303.43;44.63;;;2.30;99.90;;;;;;5064049;28;20295;-68
2021/12/27 14:05:31;;;;;;;287.47;45.93;;;2.40;99.90;;;;;;5063804;28;20474;-66
2021/12/27 14:08:10;;;;;;;272.43;43.03;;;2.40;99.90;;;;;;5064263;28;20450;-68
2021/12/27 14:10:36;;;;;;;171.10;38.97;;;2.50;99.90;;;;;;5064837;28;20279;-70
2021/12/27 14:13:02;;;;;;;230.40;41.40;;;2.50;99.90;;;;;;5065208;28;20345;-67
2021/12/27 14:15:33;;;;;;;244.27;44.57;;;2.50;99.90;;;;;;5063649;28;20409;-68
2021/12/27 14:18:10;;;;;;;221.05;43.40;;;2.50;99.90;;;;;;5062604;28;20833;-67
2021/12/27 14:20:36;;;;;;;229.47;40.47;;;2.50;99.90;;;;;;5080322;28;20040;-65
2021/12/27 14:23:11;;;;;;;127.43;36.20;;;2.50;99.90;;;;;;5064329;28;20299;-66
2021/12/27 14:25:37;;;;;;;111.57;36.07;;;2.50;99.90;;;;;;5064352;28;20094;-70
2021/12/27 14:28:09;;;;;;;106.37;35.13;;;2.50;99.90;;;;;;5063434;28;20299;-67
2021/12/27 14:30:38;;;;;;;142.80;36.97;;;2.60;99.90;;;;;;5062940;28;20299;-67
2021/12/27 14:33:10;;;;;;;85.03;31.33;;;2.60;99.90;;;;;;5063189;28;20364;-66
2021/12/27 14:35:56;;;;;;;81.47;32.85;;;2.60;99.90;;;;;;5062215;28;20364;-66
2021/12/27 14:38:27;;;;;;;83.73;32.33;;;2.70;99.90;;;;;;5064722;28;20060;-66
2021/12/27 14:40:56;;;;;;;91.10;33.38;;;2.70;99.90;;;;;;5080026;28;20336;-67
2021/12/27 14:43:24;;;;;;;71.00;31.20;;;2.70;99.90;;;;;;5079549;28;20084;-65
2021/12/27 14:45:50;;;;;;;75.27;30.77;;;2.80;99.90;;;;;;5064230;28;20841;-66
2021/12/27 14:48:16;;;;;;;85.43;31.43;;;2.90;99.90;;;;;;5057021;28;20283;-68
2021/12/27 14:50:43;;;;;;;79.13;29.83;;;2.90;99.90;;;;;;5049907;28;20044;-67
2021/12/27 14:53:09;;;;;;;65.73;29.67;;;2.90;99.90;;;;;;5066860;28;20288;-69
2021/12/27 14:55:36;;;;;;;67.63;29.13;;;2.90;99.90;;;;;;5050662;28;20794;-69
2021/12/27 14:58:07;;;;;;;68.83;29.03;;;2.90;99.90;;;;;;5048983;28;20391;-68
2021/12/27 15:00:37;;;;;;;67.70;29.63;;;3.00;99.90;;;;;;5050500;28;20291;-69
2021/12/27 15:03:03;;;;;;;67.43;30.37;;;3.00;99.90;;;;;;5049886;28;20802;-68
2021/12/27 15:05:29;;;;;;;59.23;29.33;;;3.00;99.90;;;;;;5049885;28;20385;-70
2021/12/27 15:07:54;;;;;;;57.37;27.60;;;3.10;99.90;;;;;;5050923;28;20087;-70
2021/12/27 15:10:20;;;;;;;53.87;26.27;;;3.10;99.90;;;;;;5050424;28;20315;-69
2021/12/27 15:12:46;;;;;;;56.30;26.07;;;3.10;99.90;;;;;;5050059;28;20049;-70
2021/12/27 15:15:18;;;;;;;52.53;27.30;;;3.10;99.90;;;;;;5048910;28;20041;-68
2021/12/27 15:17:48;;;;;;;62.63;26.80;;;3.10;99.90;;;;;;5064924;28;20048;-69
2021/12/27 15:20:14;;;;;;;58.37;27.13;;;3.10;99.90;;;;;;5050371;28;20049;-69
2021/12/27 15:22:40;;;;;;;67.10;27.50;;;3.10;99.90;;;;;;5050210;28;20292;-70
2021/12/27 15:25:09;;;;;;;51.00;25.03;;;3.10;99.90;;;;;;5049989;28;20280;-68
2021/12/27 15:27:36;;;;;;;57.80;27.60;;;3.10;99.90;;;;;;5065709;28;20401;-68
2021/12/27 15:30:04;;;;;;;55.60;26.20;;;3.10;99.90;;;;;;5048807;28;20341;-69
2021/12/27 15:32:30;;;;;;;55.20;26.93;;;3.10;99.90;;;;;;5049351;28;20759;-69
2021/12/27 15:34:56;;;;;;;55.27;26.83;;;3.00;99.90;;;;;;5065167;28;20283;-69
2021/12/27 15:37:22;;;;;;;53.10;26.30;;;3.00;99.90;;;;;;5049469;28;20732;-69
2021/12/27 15:39:48;;;;;;;48.77;26.73;;;3.00;99.90;;;;;;5047339;28;20279;-69
2021/12/27 15:42:13;;;;;;;53.83;25.90;;;2.90;99.90;;;;;;5048133;28;20456;-68
2021/12/27 15:44:39;;;;;;;56.70;25.60;;;3.00;99.90;;;;;;5047866;28;20497;-68
2021/12/27 15:47:06;;;;;;;56.50;26.57;;;3.00;99.90;;;;;;5064041;28;20045;-69
2021/12/27 15:49:32;;;;;;;51.63;26.47;;;3.00;99.90;;;;;;5048119;28;20444;-69
2021/12/27 15:51:57;;;;;;;48.33;24.73;;;3.00;99.90;;;;;;5049599;28;20356;-68
2021/12/27 15:54:23;;;;;;;53.80;26.17;;;3.00;99.90;;;;;;5063912;28;20045;-68
2021/12/27 15:56:48;;;;;;;56.97;26.40;;;3.00;99.90;;;;;;5049165;28;20512;-67
2021/12/27 15:59:14;;;;;;;55.63;26.27;;;3.00;99.90;;;;;;5047044;28;20071;-69
2021/12/27 16:01:40;;;;;;;51.53;25.53;;;3.00;99.90;;;;;;5047828;28;20049;-68
2021/12/27 16:04:07;;;;;;;58.87;28.23;;;2.90;99.90;;;;;;5049103;28;20067;-68
2021/12/27 16:06:34;;;;;;;47.93;25.20;;;2.90;99.90;;;;;;5063407;28;20086;-67
2021/12/27 16:08:59;;;;;;;49.77;25.60;;;2.90;99.90;;;;;;5046870;28;20319;-67
2021/12/27 16:11:25;;;;;;;46.63;26.83;;;2.80;99.90;;;;;;5048631;28;20076;-68
2021/12/27 19:12:48;;;;;;;36.40;22.93;;;2.50;99.90;;;;;;5143658;27;20397;-78
2021/12/27 19:15:14;;;;;;;42.70;24.03;;;2.50;99.90;;;;;;5147619;27;20334;-75
2021/12/27 19:17:40;;;;;;;33.70;22.87;;;2.50;99.90;;;;;;5146662;27;20308;-77
2021/12/27 19:20:07;;;;;;;33.83;22.23;;;2.50;99.90;;;;;;5147648;27;20702;-77
2021/12/27 19:22:33;;;;;;;36.10;22.63;;;2.60;99.90;;;;;;5128752;27;20469;-75
2021/12/27 19:24:59;;;;;;;31.70;22.63;;;2.60;99.90;;;;;;5146772;27;20288;-78
2021/12/27 19:27:24;;;;;;;33.10;21.80;;;2.70;99.90;;;;;;5128109;27;20276;-78
2021/12/27 19:29:50;;;;;;;34.93;23.23;;;2.70;99.90;;;;;;5146979;27;20046;-75
2021/12/27 19:32:16;;;;;;;34.87;22.03;;;2.80;99.90;;;;;;5127459;27;20107;-76
2021/12/27 19:34:41;;;;;;;34.03;28.33;;;2.80;99.90;;;;;;5127554;27;20039;-71
2021/12/27 19:37:13;;;;;;;33.17;23.53;;;2.80;99.90;;;;;;5146110;27;20137;-72
2021/12/27 19:39:42;;;;;;;29.85;21.73;;;2.90;99.90;;;;;;5145272;27;20506;-71
2021/12/27 19:42:07;;;;;;;32.53;22.10;;;3.00;99.90;;;;;;5128442;27;20047;-71
2021/12/27 19:44:33;;;;;;;29.90;21.93;;;3.00;99.90;;;;;;5146385;27;20337;-72
2021/12/27 19:47:00;;;;;;;29.50;21.43;;;3.00;99.90;;;;;;5127611;27;20050;-72
2021/12/27 19:49:27;;;;;;;29.60;21.50;;;3.00;99.90;;;;;;5146080;27;20132;-71
2021/12/27 19:51:53;;;;;;;29.30;20.47;;;3.00;99.90;;;;;;5145784;27;20346;-69
2021/12/27 19:54:19;;;;;;;28.80;20.40;;;3.10;99.90;;;;;;5127587;27;20312;-74
2021/12/27 19:56:44;;;;;;;32.73;21.40;;;3.10;99.90;;;;;;5127509;27;20672;-74
2021/12/27 19:59:10;;;;;;;30.60;19.53;;;3.10;99.90;;;;;;5127159;27;20138;-73
2021/12/27 20:01:36;;;;;;;25.37;19.30;;;3.10;99.90;;;;;;5127490;27;20077;-75
